sensor_id;sensor_type;location;lat;lon;timestamp;temperature;humidity
20446;DHT22;10382;49.140;9.234;2023-12-28T00:00:34;5.20;99.90
20446;DHT22;10382;49.140;9.234;2023-12-28T00:03:01;5.10;99.90
20446;DHT22;10382;49.140;9.234;2023-12-28T00:05:28;5.20;99.90
20446;DHT22;10382;49.140;9.234;2023-12-28T00:07:55;5.30;99.90
20446;DHT22;10382;49.140;9.234;2023-12-28T00:10:23;5.40;99.90
20446;DHT22;10382;49.140;9.234;2023-12-28T00:12:50;5.40;99.90
20446;DHT22;10382;49.140;9.234;2023-12-28T00:15:17;5.50;99.90
20446;DHT22;10382;49.140;9.234;2023-12-28T00:17:45;5.50;99.90
20446;DHT22;10382;49.140;9.234;2023-12-28T00:20:12;5.50;99.90
20446;DHT22;10382;49.140;9.234;2023-12-28T00:22:39;5.50;99.90
20446;DHT22;10382;49.140;9.234;2023-12-28T00:25:06;5.50;99.90
20446;DHT22;10382;49.140;9.234;2023-12-28T00:27:33;5.40;99.90
20446;DHT22;10382;49.140;9.234;2023-12-28T00:30:04;5.40;99.90
20446;DHT22;10382;49.140;9.234;2023-12-28T00:32:31;5.40;99.90
20446;DHT22;10382;49.140;9.234;2023-12-28T00:34:59;5.30;99.90
20446;DHT22;10382;49.140;9.234;2023-12-28T00:37:26;5.20;99.90
20446;DHT22;10382;49.140;9.234;2023-12-28T00:39:53;5.20;99.90
20446;DHT22;10382;49.140;9.234;2023-12-28T00:42:20;5.30;99.90
20446;DHT22;10382;49.140;9.234;2023-12-28T00:44:47;5.30;99.90
20446;DHT22;10382;49.140;9.234;2023-12-28T00:47:14;5.30;99.90
20446;DHT22;10382;49.140;9.234;2023-12-28T00:49:41;5.20;99.90
20446;DHT22;10382;49.140;9.234;2023-12-28T00:52:09;5.10;99.90
20446;DHT22;10382;49.140;9.234;2023-12-28T00:54:36;5.10;99.90
20446;DHT22;10382;49.140;9.234;2023-12-28T00:57:03;5.20;99.90
20446;DHT22;10382;49.140;9.234;2023-12-28T00:59:30;5.20;99.90
20446;DHT22;10382;49.140;9.234;2023-12-28T01:01:57;5.20;99.90
20446;DHT22;10382;49.140;9.234;2023-12-28T01:04:24;5.20;99.90
20446;DHT22;10382;49.140;9.234;2023-12-28T01:06:51;5.30;99.90
20446;DHT22;10382;49.140;9.234;2023-12-28T01:09:20;5.30;99.90
20446;DHT22;10382;49.140;9.234;2023-12-28T01:11:47;5.20;99.90
20446;DHT22;10382;49.140;9.234;2023-12-28T01:14:13;5.30;99.90
20446;DHT22;10382;49.140;9.234;2023-12-28T01:16:40;5.30;99.90
20446;DHT22;10382;49.140;9.234;2023-12-28T01:19:09;5.20;99.90
20446;DHT22;10382;49.140;9.234;2023-12-28T01:21:36;5.20;99.90
20446;DHT22;10382;49.140;9.234;2023-12-28T01:24:03;5.20;99.90
20446;DHT22;10382;49.140;9.234;2023-12-28T01:26:31;5.00;99.90
20446;DHT22;10382;49.140;9.234;2023-12-28T01:29:00;5.00;99.90
20446;DHT22;10382;49.140;9.234;2023-12-28T01:31:28;4.80;99.90
20446;DHT22;10382;49.140;9.234;2023-12-28T01:33:55;4.70;99.90
20446;DHT22;10382;49.140;9.234;2023-12-28T01:36:22;4.60;99.90
20446;DHT22;10382;49.140;9.234;2023-12-28T01:38:49;4.60;99.90
20446;DHT22;10382;49.140;9.234;2023-12-28T01:41:16;4.70;99.90
20446;DHT22;10382;49.140;9.234;2023-12-28T01:43:44;4.70;99.90
20446;DHT22;10382;49.140;9.234;2023-12-28T01:46:16;4.80;99.90
20446;DHT22;10382;49.140;9.234;2023-12-28T01:48:44;4.80;99.90
20446;DHT22;10382;49.140;9.234;2023-12-28T01:51:14;4.70;99.90
20446;DHT22;10382;49.140;9.234;2023-12-28T01:53:41;4.60;99.90
20446;DHT22;10382;49.140;9.234;2023-12-28T01:56:08;4.60;99.90
20446;DHT22;10382;49.140;9.234;2023-12-28T01:58:36;4.60;99.90
20446;DHT22;10382;49.140;9.234;2023-12-28T02:01:07;4.40;99.90
20446;DHT22;10382;49.140;9.234;2023-12-28T02:03:34;4.40;99.90
20446;DHT22;10382;49.140;9.234;2023-12-28T02:06:01;4.40;99.90
20446;DHT22;10382;49.140;9.234;2023-12-28T02:08:29;4.40;99.90
20446;DHT22;10382;49.140;9.234;2023-12-28T02:10:56;4.50;99.90
20446;DHT22;10382;49.140;9.234;2023-12-28T02:13:23;4.50;99.90
20446;DHT22;10382;49.140;9.234;2023-12-28T02:15:54;4.50;99.90
20446;DHT22;10382;49.140;9.234;2023-12-28T02:18:26;4.50;99.90
20446;DHT22;10382;49.140;9.234;2023-12-28T02:20:57;4.50;99.90
20446;DHT22;10382;49.140;9.234;2023-12-28T02:23:24;4.60;99.90
20446;DHT22;10382;49.140;9.234;2023-12-28T02:25:52;4.70;99.90
20446;DHT22;10382;49.140;9.234;2023-12-28T02:28:19;4.70;99.90
20446;DHT22;10382;49.140;9.234;2023-12-28T02:30:46;4.60;99.90
20446;DHT22;10382;49.140;9.234;2023-12-28T02:33:19;4.60;99.90
20446;DHT22;10382;49.140;9.234;2023-12-28T02:35:57;4.50;99.90
20446;DHT22;10382;49.140;9.234;2023-12-28T02:38:25;4.40;99.90
20446;DHT22;10382;49.140;9.234;2023-12-28T02:40:56;4.40;99.90
20446;DHT22;10382;49.140;9.234;2023-12-28T02:43:23;4.40;99.90
20446;DHT22;10382;49.140;9.234;2023-12-28T02:45:49;4.50;99.90
20446;DHT22;10382;49.140;9.234;2023-12-28T02:48:16;4.30;99.90
20446;DHT22;10382;49.140;9.234;2023-12-28T02:50:43;4.20;99.90
20446;DHT22;10382;49.140;9.234;2023-12-28T02:53:10;4.10;99.90
20446;DHT22;10382;49.140;9.234;2023-12-28T02:55:37;4.20;99.90
20446;DHT22;10382;49.140;9.234;2023-12-28T02:58:05;4.40;99.90
20446;DHT22;10382;49.140;9.234;2023-12-28T03:00:32;4.60;99.90
20446;DHT22;10382;49.140;9.234;2023-12-28T03:02:59;4.60;99.90
20446;DHT22;10382;49.140;9.234;2023-12-28T03:05:26;4.70;99.90
20446;DHT22;10382;49.140;9.234;2023-12-28T03:07:52;4.80;99.90
20446;DHT22;10382;49.140;9.234;2023-12-28T03:10:21;4.90;99.90
20446;DHT22;10382;49.140;9.234;2023-12-28T03:12:48;4.90;99.90
20446;DHT22;10382;49.140;9.234;2023-12-28T03:15:16;5.00;99.90
20446;DHT22;10382;49.140;9.234;2023-12-28T03:17:43;5.10;99.90
20446;DHT22;10382;49.140;9.234;2023-12-28T03:20:10;5.10;99.90
20446;DHT22;10382;49.140;9.234;2023-12-28T03:22:37;5.20;99.90
20446;DHT22;10382;49.140;9.234;2023-12-28T03:25:05;5.30;99.90
20446;DHT22;10382;49.140;9.234;2023-12-28T03:27:32;5.40;99.90
20446;DHT22;10382;49.140;9.234;2023-12-28T03:29:58;5.40;99.90
20446;DHT22;10382;49.140;9.234;2023-12-28T03:32:27;5.50;99.90
20446;DHT22;10382;49.140;9.234;2023-12-28T03:34:54;5.50;99.90
20446;DHT22;10382;49.140;9.234;2023-12-28T03:37:20;5.50;99.90
20446;DHT22;10382;49.140;9.234;2023-12-28T03:39:47;5.40;99.90
20446;DHT22;10382;49.140;9.234;2023-12-28T03:42:14;5.10;99.90
20446;DHT22;10382;49.140;9.234;2023-12-28T03:44:41;5.10;99.90
20446;DHT22;10382;49.140;9.234;2023-12-28T03:47:08;4.90;99.90
20446;DHT22;10382;49.140;9.234;2023-12-28T03:49:36;5.00;99.90
20446;DHT22;10382;49.140;9.234;2023-12-28T03:52:03;5.10;99.90
20446;DHT22;10382;49.140;9.234;2023-12-28T03:54:30;5.10;99.90
20446;DHT22;10382;49.140;9.234;2023-12-28T03:56:57;5.00;99.90
20446;DHT22;10382;49.140;9.234;2023-12-28T03:59:24;5.00;99.90
20446;DHT22;10382;49.140;9.234;2023-12-28T04:01:51;5.10;99.90
20446;DHT22;10382;49.140;9.234;2023-12-28T04:04:18;5.20;99.90
20446;DHT22;10382;49.140;9.234;2023-12-28T04:06:46;5.10;99.90
20446;DHT22;10382;49.140;9.234;2023-12-28T04:09:14;5.00;99.90
20446;DHT22;10382;49.140;9.234;2023-12-28T04:11:41;5.10;99.90
20446;DHT22;10382;49.140;9.234;2023-12-28T04:14:08;5.10;99.90
20446;DHT22;10382;49.140;9.234;2023-12-28T04:16:35;5.20;99.90
20446;DHT22;10382;49.140;9.234;2023-12-28T04:19:02;5.30;99.90
20446;DHT22;10382;49.140;9.234;2023-12-28T04:21:29;5.40;99.90
20446;DHT22;10382;49.140;9.234;2023-12-28T04:23:57;5.60;99.90
20446;DHT22;10382;49.140;9.234;2023-12-28T04:26:24;5.60;99.90
20446;DHT22;10382;49.140;9.234;2023-12-28T04:28:51;5.70;99.90
20446;DHT22;10382;49.140;9.234;2023-12-28T04:31:18;5.70;99.90
20446;DHT22;10382;49.140;9.234;2023-12-28T04:33:44;5.80;99.90
20446;DHT22;10382;49.140;9.234;2023-12-28T04:36:11;5.80;99.90
20446;DHT22;10382;49.140;9.234;2023-12-28T04:38:38;5.90;99.90
20446;DHT22;10382;49.140;9.234;2023-12-28T04:41:07;5.90;99.90
20446;DHT22;10382;49.140;9.234;2023-12-28T04:43:36;6.00;99.90
20446;DHT22;10382;49.140;9.234;2023-12-28T04:46:03;6.10;99.90
20446;DHT22;10382;49.140;9.234;2023-12-28T04:48:30;6.10;99.90
20446;DHT22;10382;49.140;9.234;2023-12-28T04:50:57;6.10;99.90
20446;DHT22;10382;49.140;9.234;2023-12-28T04:53:24;6.20;99.90
20446;DHT22;10382;49.140;9.234;2023-12-28T04:55:51;6.30;99.90
20446;DHT22;10382;49.140;9.234;2023-12-28T04:58:19;6.30;99.90
20446;DHT22;10382;49.140;9.234;2023-12-28T05:00:46;6.30;99.90
20446;DHT22;10382;49.140;9.234;2023-12-28T05:03:13;6.30;99.90
20446;DHT22;10382;49.140;9.234;2023-12-28T05:05:40;6.30;99.90
20446;DHT22;10382;49.140;9.234;2023-12-28T05:08:07;6.30;99.90
20446;DHT22;10382;49.140;9.234;2023-12-28T05:10:34;6.40;99.90
20446;DHT22;10382;49.140;9.234;2023-12-28T05:13:01;6.30;99.90
20446;DHT22;10382;49.140;9.234;2023-12-28T05:15:29;6.10;99.90
20446;DHT22;10382;49.140;9.234;2023-12-28T05:17:56;6.00;99.90
20446;DHT22;10382;49.140;9.234;2023-12-28T05:20:23;6.00;99.90
20446;DHT22;10382;49.140;9.234;2023-12-28T05:22:50;5.70;99.90
20446;DHT22;10382;49.140;9.234;2023-12-28T05:25:16;5.50;99.90
20446;DHT22;10382;49.140;9.234;2023-12-28T05:27:43;5.50;99.90
20446;DHT22;10382;49.140;9.234;2023-12-28T05:30:10;5.40;99.90
20446;DHT22;10382;49.140;9.234;2023-12-28T05:32:39;5.30;99.90
20446;DHT22;10382;49.140;9.234;2023-12-28T05:35:06;5.40;99.90
20446;DHT22;10382;49.140;9.234;2023-12-28T05:37:33;5.60;99.90
20446;DHT22;10382;49.140;9.234;2023-12-28T05:40:00;5.80;99.90
20446;DHT22;10382;49.140;9.234;2023-12-28T05:42:27;5.80;99.90
20446;DHT22;10382;49.140;9.234;2023-12-28T05:44:54;5.90;99.90
20446;DHT22;10382;49.140;9.234;2023-12-28T05:47:21;5.80;99.90
20446;DHT22;10382;49.140;9.234;2023-12-28T05:49:49;5.90;99.90
20446;DHT22;10382;49.140;9.234;2023-12-28T05:52:17;5.90;99.90
20446;DHT22;10382;49.140;9.234;2023-12-28T05:54:44;5.90;99.90
20446;DHT22;10382;49.140;9.234;2023-12-28T05:57:11;5.70;99.90
20446;DHT22;10382;49.140;9.234;2023-12-28T05:59:38;5.70;99.90
20446;DHT22;10382;49.140;9.234;2023-12-28T06:02:06;5.80;99.90
20446;DHT22;10382;49.140;9.234;2023-12-28T06:04:33;5.80;99.90
20446;DHT22;10382;49.140;9.234;2023-12-28T06:07:02;5.80;99.90
20446;DHT22;10382;49.140;9.234;2023-12-28T06:09:28;5.80;99.90
20446;DHT22;10382;49.140;9.234;2023-12-28T06:11:55;5.80;99.90
20446;DHT22;10382;49.140;9.234;2023-12-28T06:14:22;5.80;99.90
20446;DHT22;10382;49.140;9.234;2023-12-28T06:16:49;5.80;99.90
20446;DHT22;10382;49.140;9.234;2023-12-28T06:19:16;5.90;99.90
20446;DHT22;10382;49.140;9.234;2023-12-28T06:21:43;6.10;99.90
20446;DHT22;10382;49.140;9.234;2023-12-28T06:24:11;6.20;99.90
20446;DHT22;10382;49.140;9.234;2023-12-28T06:26:39;6.30;99.90
20446;DHT22;10382;49.140;9.234;2023-12-28T06:29:07;6.40;99.90
20446;DHT22;10382;49.140;9.234;2023-12-28T06:31:34;6.50;99.90
20446;DHT22;10382;49.140;9.234;2023-12-28T06:34:02;6.50;99.90
20446;DHT22;10382;49.140;9.234;2023-12-28T06:36:29;6.70;99.90
20446;DHT22;10382;49.140;9.234;2023-12-28T06:38:56;6.80;99.90
20446;DHT22;10382;49.140;9.234;2023-12-28T06:41:25;6.90;99.90
20446;DHT22;10382;49.140;9.234;2023-12-28T06:43:52;7.20;99.90
20446;DHT22;10382;49.140;9.234;2023-12-28T06:46:19;7.30;99.90
20446;DHT22;10382;49.140;9.234;2023-12-28T06:48:46;7.60;99.90
20446;DHT22;10382;49.140;9.234;2023-12-28T06:51:17;7.70;99.90
20446;DHT22;10382;49.140;9.234;2023-12-28T06:53:45;8.00;99.90
20446;DHT22;10382;49.140;9.234;2023-12-28T06:56:11;8.20;99.90
20446;DHT22;10382;49.140;9.234;2023-12-28T06:58:40;8.40;99.90
20446;DHT22;10382;49.140;9.234;2023-12-28T07:01:07;8.60;99.90
20446;DHT22;10382;49.140;9.234;2023-12-28T07:03:34;8.70;99.90
20446;DHT22;10382;49.140;9.234;2023-12-28T07:06:01;8.80;99.90
20446;DHT22;10382;49.140;9.234;2023-12-28T07:08:29;8.90;99.90
20446;DHT22;10382;49.140;9.234;2023-12-28T07:10:55;8.90;99.90
20446;DHT22;10382;49.140;9.234;2023-12-28T07:13:22;8.90;99.90
20446;DHT22;10382;49.140;9.234;2023-12-28T07:15:51;9.00;99.90
20446;DHT22;10382;49.140;9.234;2023-12-28T07:18:18;9.00;99.90
20446;DHT22;10382;49.140;9.234;2023-12-28T07:20:45;9.10;99.90
20446;DHT22;10382;49.140;9.234;2023-12-28T07:23:12;9.10;99.90
20446;DHT22;10382;49.140;9.234;2023-12-28T07:25:39;8.90;99.90
20446;DHT22;10382;49.140;9.234;2023-12-28T07:28:06;8.80;99.90
20446;DHT22;10382;49.140;9.234;2023-12-28T07:30:33;8.70;99.90
20446;DHT22;10382;49.140;9.234;2023-12-28T07:33:01;8.60;99.90
20446;DHT22;10382;49.140;9.234;2023-12-28T07:35:28;8.70;99.90
20446;DHT22;10382;49.140;9.234;2023-12-28T07:37:55;8.70;99.90
20446;DHT22;10382;49.140;9.234;2023-12-28T07:40:22;8.60;99.90
20446;DHT22;10382;49.140;9.234;2023-12-28T07:42:48;8.50;99.90
20446;DHT22;10382;49.140;9.234;2023-12-28T07:45:15;8.60;99.90
20446;DHT22;10382;49.140;9.234;2023-12-28T07:47:43;8.60;99.90
20446;DHT22;10382;49.140;9.234;2023-12-28T07:50:11;8.60;99.90
20446;DHT22;10382;49.140;9.234;2023-12-28T07:52:38;8.70;99.90
20446;DHT22;10382;49.140;9.234;2023-12-28T07:55:05;8.70;99.90
20446;DHT22;10382;49.140;9.234;2023-12-28T07:57:32;8.70;99.90
20446;DHT22;10382;49.140;9.234;2023-12-28T08:00:00;8.70;99.90
20446;DHT22;10382;49.140;9.234;2023-12-28T08:02:27;8.60;99.90
20446;DHT22;10382;49.140;9.234;2023-12-28T08:04:54;8.70;99.90
20446;DHT22;10382;49.140;9.234;2023-12-28T08:07:22;8.80;99.90
20446;DHT22;10382;49.140;9.234;2023-12-28T08:09:49;8.80;99.90
20446;DHT22;10382;49.140;9.234;2023-12-28T08:12:16;8.90;99.90
20446;DHT22;10382;49.140;9.234;2023-12-28T08:14:43;9.10;99.90
20446;DHT22;10382;49.140;9.234;2023-12-28T08:17:10;9.30;99.90
20446;DHT22;10382;49.140;9.234;2023-12-28T08:19:38;9.40;99.90
20446;DHT22;10382;49.140;9.234;2023-12-28T08:22:05;9.40;99.90
20446;DHT22;10382;49.140;9.234;2023-12-28T08:24:33;9.50;99.90
20446;DHT22;10382;49.140;9.234;2023-12-28T08:27:01;9.50;99.90
20446;DHT22;10382;49.140;9.234;2023-12-28T08:29:28;9.70;99.90
20446;DHT22;10382;49.140;9.234;2023-12-28T08:31:55;9.80;99.90
20446;DHT22;10382;49.140;9.234;2023-12-28T08:34:22;9.80;99.90
20446;DHT22;10382;49.140;9.234;2023-12-28T08:36:49;9.90;99.90
20446;DHT22;10382;49.140;9.234;2023-12-28T08:39:16;9.90;99.90
20446;DHT22;10382;49.140;9.234;2023-12-28T08:41:44;10.00;99.90
20446;DHT22;10382;49.140;9.234;2023-12-28T08:44:11;9.90;99.90
20446;DHT22;10382;49.140;9.234;2023-12-28T08:46:38;10.10;99.90
20446;DHT22;10382;49.140;9.234;2023-12-28T08:49:04;10.10;99.90
20446;DHT22;10382;49.140;9.234;2023-12-28T08:51:31;10.20;99.90
20446;DHT22;10382;49.140;9.234;2023-12-28T08:53:58;10.20;99.90
20446;DHT22;10382;49.140;9.234;2023-12-28T08:56:25;10.30;99.90
20446;DHT22;10382;49.140;9.234;2023-12-28T08:58:53;10.40;99.90
20446;DHT22;10382;49.140;9.234;2023-12-28T09:01:22;10.50;99.90
20446;DHT22;10382;49.140;9.234;2023-12-28T09:03:52;10.50;99.90
20446;DHT22;10382;49.140;9.234;2023-12-28T09:06:20;10.50;99.90
20446;DHT22;10382;49.140;9.234;2023-12-28T09:08:48;10.60;99.90
20446;DHT22;10382;49.140;9.234;2023-12-28T09:11:16;10.60;99.90
20446;DHT22;10382;49.140;9.234;2023-12-28T09:13:43;10.80;99.90
20446;DHT22;10382;49.140;9.234;2023-12-28T09:16:12;10.90;99.90
20446;DHT22;10382;49.140;9.234;2023-12-28T09:18:40;11.00;99.90
20446;DHT22;10382;49.140;9.234;2023-12-28T09:21:08;11.10;99.90
20446;DHT22;10382;49.140;9.234;2023-12-28T09:23:35;11.10;99.90
20446;DHT22;10382;49.140;9.234;2023-12-28T09:26:03;11.20;99.90
20446;DHT22;10382;49.140;9.234;2023-12-28T09:28:31;11.30;99.90
20446;DHT22;10382;49.140;9.234;2023-12-28T09:30:58;11.30;99.90
20446;DHT22;10382;49.140;9.234;2023-12-28T09:33:26;11.30;99.90
20446;DHT22;10382;49.140;9.234;2023-12-28T09:35:53;11.30;99.90
20446;DHT22;10382;49.140;9.234;2023-12-28T09:38:20;11.30;99.90
20446;DHT22;10382;49.140;9.234;2023-12-28T09:40:48;11.30;99.90
20446;DHT22;10382;49.140;9.234;2023-12-28T09:43:22;11.40;99.90
20446;DHT22;10382;49.140;9.234;2023-12-28T09:45:50;11.40;99.90
20446;DHT22;10382;49.140;9.234;2023-12-28T09:48:18;11.30;99.90
20446;DHT22;10382;49.140;9.234;2023-12-28T09:50:49;11.30;99.90
20446;DHT22;10382;49.140;9.234;2023-12-28T09:53:16;11.30;99.90
20446;DHT22;10382;49.140;9.234;2023-12-28T09:55:44;11.30;99.90
20446;DHT22;10382;49.140;9.234;2023-12-28T09:58:13;11.30;99.90
20446;DHT22;10382;49.140;9.234;2023-12-28T10:00:44;11.30;99.90
20446;DHT22;10382;49.140;9.234;2023-12-28T10:03:12;11.30;99.90
20446;DHT22;10382;49.140;9.234;2023-12-28T10:05:40;11.40;99.90
20446;DHT22;10382;49.140;9.234;2023-12-28T10:08:11;11.30;99.90
20446;DHT22;10382;49.140;9.234;2023-12-28T10:10:39;11.20;99.90
20446;DHT22;10382;49.140;9.234;2023-12-28T10:13:06;11.10;99.90
20446;DHT22;10382;49.140;9.234;2023-12-28T10:15:34;11.00;99.90
20446;DHT22;10382;49.140;9.234;2023-12-28T10:18:02;11.00;99.90
20446;DHT22;10382;49.140;9.234;2023-12-28T10:20:29;11.10;99.90
20446;DHT22;10382;49.140;9.234;2023-12-28T10:22:57;11.10;99.90
20446;DHT22;10382;49.140;9.234;2023-12-28T10:25:26;11.10;99.90
20446;DHT22;10382;49.140;9.234;2023-12-28T10:27:53;11.00;99.90
20446;DHT22;10382;49.140;9.234;2023-12-28T10:30:21;10.90;99.90
20446;DHT22;10382;49.140;9.234;2023-12-28T10:32:48;10.90;99.90
20446;DHT22;10382;49.140;9.234;2023-12-28T10:35:15;11.00;99.90
20446;DHT22;10382;49.140;9.234;2023-12-28T10:37:43;10.90;99.90
20446;DHT22;10382;49.140;9.234;2023-12-28T10:40:12;10.80;99.90
20446;DHT22;10382;49.140;9.234;2023-12-28T10:42:46;10.80;99.90
20446;DHT22;10382;49.140;9.234;2023-12-28T10:45:16;10.80;99.90
20446;DHT22;10382;49.140;9.234;2023-12-28T10:47:52;10.80;99.90
20446;DHT22;10382;49.140;9.234;2023-12-28T10:50:20;10.90;99.90
20446;DHT22;10382;49.140;9.234;2023-12-28T10:52:51;11.00;99.90
20446;DHT22;10382;49.140;9.234;2023-12-28T10:55:27;11.30;99.90
20446;DHT22;10382;49.140;9.234;2023-12-28T10:58:05;11.40;99.90
20446;DHT22;10382;49.140;9.234;2023-12-28T11:00:43;11.50;99.90
20446;DHT22;10382;49.140;9.234;2023-12-28T11:03:18;11.50;99.90
20446;DHT22;10382;49.140;9.234;2023-12-28T11:05:47;11.50;99.90
20446;DHT22;10382;49.140;9.234;2023-12-28T11:08:15;11.60;99.90
20446;DHT22;10382;49.140;9.234;2023-12-28T11:10:43;11.70;99.90
20446;DHT22;10382;49.140;9.234;2023-12-28T11:13:12;11.70;99.90
20446;DHT22;10382;49.140;9.234;2023-12-28T11:15:41;11.80;99.90
20446;DHT22;10382;49.140;9.234;2023-12-28T11:18:18;11.80;99.90
20446;DHT22;10382;49.140;9.234;2023-12-28T11:20:47;11.90;99.90
20446;DHT22;10382;49.140;9.234;2023-12-28T11:23:15;12.00;99.90
20446;DHT22;10382;49.140;9.234;2023-12-28T11:25:42;12.00;99.90
20446;DHT22;10382;49.140;9.234;2023-12-28T11:28:10;12.10;99.90
20446;DHT22;10382;49.140;9.234;2023-12-28T11:30:37;12.20;99.90
20446;DHT22;10382;49.140;9.234;2023-12-28T11:33:04;12.30;99.90
20446;DHT22;10382;49.140;9.234;2023-12-28T11:35:36;12.30;99.90
20446;DHT22;10382;49.140;9.234;2023-12-28T11:38:08;12.40;99.90
20446;DHT22;10382;49.140;9.234;2023-12-28T11:40:40;12.40;99.90
20446;DHT22;10382;49.140;9.234;2023-12-28T11:43:17;12.60;99.90
20446;DHT22;10382;49.140;9.234;2023-12-28T11:45:49;12.70;99.90
20446;DHT22;10382;49.140;9.234;2023-12-28T11:48:23;12.80;99.90
20446;DHT22;10382;49.140;9.234;2023-12-28T11:50:55;12.60;99.90
20446;DHT22;10382;49.140;9.234;2023-12-28T11:53:24;12.50;99.90
20446;DHT22;10382;49.140;9.234;2023-12-28T11:55:51;12.40;99.90
20446;DHT22;10382;49.140;9.234;2023-12-28T11:58:18;12.40;99.90
20446;DHT22;10382;49.140;9.234;2023-12-28T12:00:45;12.50;99.90
20446;DHT22;10382;49.140;9.234;2023-12-28T12:03:12;12.50;99.90
20446;DHT22;10382;49.140;9.234;2023-12-28T12:05:39;12.50;99.90
20446;DHT22;10382;49.140;9.234;2023-12-28T12:08:09;12.30;99.90
20446;DHT22;10382;49.140;9.234;2023-12-28T12:10:39;12.20;99.90
20446;DHT22;10382;49.140;9.234;2023-12-28T12:13:06;12.10;99.90
20446;DHT22;10382;49.140;9.234;2023-12-28T12:15:33;12.10;99.90
20446;DHT22;10382;49.140;9.234;2023-12-28T12:18:01;12.00;99.90
20446;DHT22;10382;49.140;9.234;2023-12-28T12:20:28;12.00;99.90
20446;DHT22;10382;49.140;9.234;2023-12-28T12:22:58;12.00;99.90
20446;DHT22;10382;49.140;9.234;2023-12-28T12:25:26;11.90;99.90
20446;DHT22;10382;49.140;9.234;2023-12-28T12:27:55;11.70;99.90
20446;DHT22;10382;49.140;9.234;2023-12-28T12:30:22;11.70;99.90
20446;DHT22;10382;49.140;9.234;2023-12-28T12:32:49;11.70;99.90
20446;DHT22;10382;49.140;9.234;2023-12-28T12:35:16;11.80;99.90
20446;DHT22;10382;49.140;9.234;2023-12-28T12:37:46;11.70;99.90
20446;DHT22;10382;49.140;9.234;2023-12-28T12:40:15;11.60;99.90
20446;DHT22;10382;49.140;9.234;2023-12-28T12:42:51;11.60;99.90
20446;DHT22;10382;49.140;9.234;2023-12-28T12:45:19;11.50;99.90
20446;DHT22;10382;49.140;9.234;2023-12-28T12:47:47;11.40;99.90
20446;DHT22;10382;49.140;9.234;2023-12-28T12:50:15;11.30;99.90
20446;DHT22;10382;49.140;9.234;2023-12-28T12:52:42;11.20;99.90
20446;DHT22;10382;49.140;9.234;2023-12-28T12:55:10;11.20;99.90
20446;DHT22;10382;49.140;9.234;2023-12-28T12:57:38;11.20;99.90
20446;DHT22;10382;49.140;9.234;2023-12-28T13:00:08;11.20;99.90
20446;DHT22;10382;49.140;9.234;2023-12-28T13:02:36;11.20;99.90
20446;DHT22;10382;49.140;9.234;2023-12-28T13:05:04;11.20;99.90
20446;DHT22;10382;49.140;9.234;2023-12-28T13:07:31;11.30;99.90
20446;DHT22;10382;49.140;9.234;2023-12-28T13:09:59;11.30;99.90
20446;DHT22;10382;49.140;9.234;2023-12-28T13:12:26;11.20;99.90
20446;DHT22;10382;49.140;9.234;2023-12-28T13:14:53;11.10;99.90
20446;DHT22;10382;49.140;9.234;2023-12-28T13:17:21;11.20;99.90
20446;DHT22;10382;49.140;9.234;2023-12-28T13:19:48;11.10;99.90
20446;DHT22;10382;49.140;9.234;2023-12-28T13:22:15;11.00;99.90
20446;DHT22;10382;49.140;9.234;2023-12-28T13:24:42;11.00;99.90
20446;DHT22;10382;49.140;9.234;2023-12-28T13:27:09;10.90;99.90
20446;DHT22;10382;49.140;9.234;2023-12-28T13:29:36;10.90;99.90
20446;DHT22;10382;49.140;9.234;2023-12-28T13:32:03;10.90;99.90
20446;DHT22;10382;49.140;9.234;2023-12-28T13:34:32;10.80;99.90
20446;DHT22;10382;49.140;9.234;2023-12-28T13:36:58;10.80;99.90
20446;DHT22;10382;49.140;9.234;2023-12-28T13:39:26;10.80;99.90
20446;DHT22;10382;49.140;9.234;2023-12-28T13:41:54;10.80;99.90
20446;DHT22;10382;49.140;9.234;2023-12-28T13:44:21;10.80;99.90
20446;DHT22;10382;49.140;9.234;2023-12-28T13:46:48;10.70;99.90
20446;DHT22;10382;49.140;9.234;2023-12-28T13:49:15;10.60;99.90
20446;DHT22;10382;49.140;9.234;2023-12-28T13:51:43;10.70;99.90
20446;DHT22;10382;49.140;9.234;2023-12-28T13:54:11;10.70;99.90
20446;DHT22;10382;49.140;9.234;2023-12-28T13:56:38;10.60;99.90
20446;DHT22;10382;49.140;9.234;2023-12-28T13:59:07;10.70;99.90
20446;DHT22;10382;49.140;9.234;2023-12-28T14:01:34;10.70;99.90
20446;DHT22;10382;49.140;9.234;2023-12-28T14:04:01;10.70;99.90
20446;DHT22;10382;49.140;9.234;2023-12-28T14:06:28;10.70;99.90
20446;DHT22;10382;49.140;9.234;2023-12-28T14:08:57;10.60;99.90
20446;DHT22;10382;49.140;9.234;2023-12-28T14:11:24;10.70;99.90
20446;DHT22;10382;49.140;9.234;2023-12-28T14:13:51;10.60;99.90
20446;DHT22;10382;49.140;9.234;2023-12-28T14:16:18;10.60;99.90
20446;DHT22;10382;49.140;9.234;2023-12-28T14:18:45;10.60;99.90
20446;DHT22;10382;49.140;9.234;2023-12-28T14:21:13;10.60;99.90
20446;DHT22;10382;49.140;9.234;2023-12-28T14:23:40;10.60;99.90
20446;DHT22;10382;49.140;9.234;2023-12-28T14:26:12;10.70;99.90
20446;DHT22;10382;49.140;9.234;2023-12-28T14:28:40;10.70;99.90
20446;DHT22;10382;49.140;9.234;2023-12-28T14:31:08;10.70;99.90
20446;DHT22;10382;49.140;9.234;2023-12-28T14:33:36;10.70;99.90
20446;DHT22;10382;49.140;9.234;2023-12-28T14:36:07;10.70;99.90
20446;DHT22;10382;49.140;9.234;2023-12-28T14:38:37;10.70;99.90
20446;DHT22;10382;49.140;9.234;2023-12-28T14:41:03;10.60;99.90
20446;DHT22;10382;49.140;9.234;2023-12-28T14:43:32;10.60;99.90
20446;DHT22;10382;49.140;9.234;2023-12-28T14:45:59;10.50;99.90
20446;DHT22;10382;49.140;9.234;2023-12-28T14:48:25;10.50;99.90
20446;DHT22;10382;49.140;9.234;2023-12-28T14:50:52;10.50;99.90
20446;DHT22;10382;49.140;9.234;2023-12-28T14:53:19;10.50;99.90
20446;DHT22;10382;49.140;9.234;2023-12-28T14:55:46;10.50;99.90
20446;DHT22;10382;49.140;9.234;2023-12-28T14:58:13;10.50;99.90
20446;DHT22;10382;49.140;9.234;2023-12-28T15:00:43;10.50;99.90
20446;DHT22;10382;49.140;9.234;2023-12-28T15:03:10;10.50;99.90
20446;DHT22;10382;49.140;9.234;2023-12-28T15:05:37;10.60;99.90
20446;DHT22;10382;49.140;9.234;2023-12-28T15:08:04;10.80;99.90
20446;DHT22;10382;49.140;9.234;2023-12-28T15:10:32;10.90;99.90
20446;DHT22;10382;49.140;9.234;2023-12-28T15:13:00;11.00;99.90
20446;DHT22;10382;49.140;9.234;2023-12-28T15:15:28;11.00;99.90
20446;DHT22;10382;49.140;9.234;2023-12-28T15:17:57;11.00;99.90
20446;DHT22;10382;49.140;9.234;2023-12-28T15:20:25;11.10;99.90
20446;DHT22;10382;49.140;9.234;2023-12-28T15:22:52;11.20;99.90
20446;DHT22;10382;49.140;9.234;2023-12-28T15:25:19;11.20;99.90
20446;DHT22;10382;49.140;9.234;2023-12-28T15:27:47;11.30;99.90
20446;DHT22;10382;49.140;9.234;2023-12-28T15:30:16;11.40;99.90
20446;DHT22;10382;49.140;9.234;2023-12-28T15:32:43;11.50;99.90
20446;DHT22;10382;49.140;9.234;2023-12-28T15:35:13;11.50;99.90
20446;DHT22;10382;49.140;9.234;2023-12-28T15:37:43;11.50;99.90
20446;DHT22;10382;49.140;9.234;2023-12-28T15:40:10;11.40;99.90
20446;DHT22;10382;49.140;9.234;2023-12-28T15:42:39;11.40;99.90